Time;durP1;ratioP1;P1;durP2;ratioP2;P2;SDS_P1;SDS_P2;PMS_P1;PMS_P2;Temp;Humidity;BMP_temperature;BMP_pressure;BME280_temperature;BME280_humidity;BME280_pressure;Samples;Min_cycle;Max_cycle;Signal;HPM_P1;HPM_P2
2021/11/15 00:00:19;;;;;;;0.57;0.57;;;;;;;;;;5957679;24;20024;-94
2021/11/15 00:02:45;;;;;;;0.10;0.10;;;;;;;;;;5957078;24;20440;-94
2021/11/15 00:05:11;;;;;;;2.83;0.43;;;;;;;;;;5958098;24;20163;-95
2021/11/15 00:07:37;;;;;;;0.10;0.10;;;;;;;;;;5957672;24;20446;-93
2021/11/15 00:10:05;;;;;;;0.20;0.20;;;;;;;;;;5957892;24;20427;-93
2021/11/15 00:12:31;;;;;;;1.55;0.20;;;;;;;;;;5957195;24;20061;-93
2021/11/15 00:14:57;;;;;;;0.95;0.45;;;;;;;;;;5957383;24;20016;-94
2021/11/15 00:17:23;;;;;;;0.17;0.17;;;;;;;;;;5957406;24;20068;-94
2021/11/15 00:19:49;;;;;;;0.10;0.10;;;;;;;;;;5957455;24;20016;-94
2021/11/15 00:22:15;;;;;;;0.10;0.10;;;;;;;;;;5957730;24;20071;-95
2021/11/15 00:24:41;;;;;;;0.10;0.10;;;;;;;;;;5957413;24;20320;-93
2021/11/15 00:27:07;;;;;;;2.92;0.30;;;;;;;;;;5957827;24;20026;-93
2021/11/15 00:29:33;;;;;;;0.20;0.20;;;;;;;;;;5957611;24;20016;-94
2021/11/15 00:31:59;;;;;;;0.10;0.10;;;;;;;;;;5957607;24;20426;-96
2021/11/15 00:34:25;;;;;;;0.73;0.73;;;;;;;;;;5957229;24;20331;-94
2021/11/15 00:36:51;;;;;;;0.10;0.10;;;;;;;;;;5957181;24;20017;-94
2021/11/15 00:39:17;;;;;;;0.55;0.30;;;;;;;;;;5957582;24;20016;-95
2021/11/15 00:41:44;;;;;;;0.10;0.10;;;;;;;;;;5957516;24;20069;-96
2021/11/15 00:44:10;;;;;;;0.45;0.45;;;;;;;;;;5957203;24;20012;-94
2021/11/15 00:46:36;;;;;;;0.10;0.10;;;;;;;;;;5957823;24;20013;-93
2021/11/15 00:49:02;;;;;;;0.10;0.10;;;;;;;;;;5957361;24;20539;-94
2021/11/15 00:51:29;;;;;;;0.10;0.10;;;;;;;;;;5957282;24;20018;-94
2021/11/15 00:53:56;;;;;;;0.10;0.10;;;;;;;;;;5957445;24;20515;-94
2021/11/15 00:56:22;;;;;;;0.10;0.10;;;;;;;;;;5957574;24;20053;-93
2021/11/15 00:58:48;;;;;;;0.30;0.30;;;;;;;;;;5979833;23;20068;-93
2021/11/15 01:05:03;;;;;;;0.10;0.10;;;;;;;;;;5959856;24;20020;-96
2021/11/15 01:07:30;;;;;;;0.10;0.10;;;;;;;;;;5930172;24;20057;-96
2021/11/15 01:10:02;;;;;;;0.15;0.15;;;;;;;;;;5956869;24;20022;-96
2021/11/15 01:12:30;;;;;;;0.20;0.20;;;;;;;;;;5959636;24;20020;-96
2021/11/15 01:15:00;;;;;;;0.30;0.17;;;;;;;;;;5961059;24;20423;-96
2021/11/15 01:18:00;;;;;;;;;;;;;;;;;;;;;
2021/11/15 01:20:38;;;;;;;0.10;0.10;;;;;;;;;;5980641;24;20051;-96
2021/11/15 01:23:04;;;;;;;0.10;0.10;;;;;;;;;;5960209;24;20027;-96
2021/11/15 01:25:31;;;;;;;0.10;0.10;;;;;;;;;;5958678;24;20023;-93
2021/11/15 01:27:57;;;;;;;0.30;0.30;;;;;;;;;;5959441;24;20306;-93
2021/11/15 01:30:23;;;;;;;0.10;0.10;;;;;;;;;;5959446;24;20020;-93
2021/11/15 01:32:49;;;;;;;0.10;0.10;;;;;;;;;;5959128;24;20035;-94
2021/11/15 01:35:15;;;;;;;0.22;0.22;;;;;;;;;;5958937;24;20466;-94
2021/11/15 01:37:42;;;;;;;0.70;0.30;;;;;;;;;;5958985;24;20376;-93
2021/11/15 01:40:08;;;;;;;0.10;0.10;;;;;;;;;;5958721;24;20016;-94
2021/11/15 01:42:34;;;;;;;0.10;0.10;;;;;;;;;;5958756;24;20039;-94
2021/11/15 01:45:00;;;;;;;0.10;0.10;;;;;;;;;;5959341;24;20115;-96
2021/11/15 01:47:26;;;;;;;0.10;0.10;;;;;;;;;;5959028;24;20020;-94
2021/11/15 01:49:52;;;;;;;1.02;0.73;;;;;;;;;;5958962;24;20419;-94
2021/11/15 01:52:19;;;;;;;0.15;0.15;;;;;;;;;;5959200;24;20012;-95
2021/11/15 01:54:45;;;;;;;0.10;0.10;;;;;;;;;;5982322;24;20092;-96
2021/11/15 01:57:12;;;;;;;0.10;0.10;;;;;;;;;;5958853;24;20023;-94
2021/11/15 01:59:39;;;;;;;0.10;0.10;;;;;;;;;;5988477;23;20094;-93
2021/11/15 02:02:05;;;;;;;1.25;0.20;;;;;;;;;;5991586;23;20019;-95
2021/11/15 02:04:31;;;;;;;0.20;0.20;;;;;;;;;;5991277;23;20019;-96
2021/11/15 02:06:57;;;;;;;0.20;0.20;;;;;;;;;;5991042;23;20021;-94
2021/11/15 02:09:24;;;;;;;0.47;0.47;;;;;;;;;;5991025;23;20021;-94
2021/11/15 02:11:51;;;;;;;0.10;0.10;;;;;;;;;;5990976;23;20019;-93
2021/11/15 02:14:17;;;;;;;0.00;0.00;;;;;;;;;;5991571;23;20561;-94
2021/11/15 02:16:43;;;;;;;0.22;0.22;;;;;;;;;;5991391;23;20169;-94
2021/11/15 02:19:09;;;;;;;0.10;0.10;;;;;;;;;;5990429;23;20023;-95
2021/11/15 02:21:35;;;;;;;0.20;0.20;;;;;;;;;;5991437;23;20011;-94
2021/11/15 02:24:01;;;;;;;0.10;0.10;;;;;;;;;;5990595;23;20019;-94
2021/11/15 02:26:28;;;;;;;0.10;0.10;;;;;;;;;;5991056;23;20030;-93
2021/11/15 02:28:54;;;;;;;0.10;0.10;;;;;;;;;;5991320;23;20015;-94
2021/11/15 02:31:23;;;;;;;0.10;0.10;;;;;;;;;;5991305;23;20068;-93
2021/11/15 02:33:49;;;;;;;0.10;0.10;;;;;;;;;;5990880;23;20075;-94
2021/11/15 02:36:15;;;;;;;1.00;0.30;;;;;;;;;;5991626;23;20022;-93
2021/11/15 02:38:41;;;;;;;0.10;0.10;;;;;;;;;;5990342;23;20019;-94
2021/11/15 02:41:07;;;;;;;0.10;0.10;;;;;;;;;;5990615;23;20019;-95
2021/11/15 02:43:33;;;;;;;0.10;0.10;;;;;;;;;;5991751;23;20030;-93
2021/11/15 02:46:22;;;;;;;;;;;;;;;;;;;;;
2021/11/15 02:48:55;;;;;;;0.10;0.10;;;;;;;;;;6023555;23;20063;-96
2021/11/15 02:51:50;;;;;;;0.30;0.30;;;;;;;;;;5998846;23;20016;-96
2021/11/15 02:54:57;;;;;;;;;;;;;;;;;;;;;
2021/11/15 02:57:58;;;;;;;0.10;0.10;;;;;;;;;;6031229;23;20058;-96
2021/11/15 03:00:54;;;;;;;0.10;0.10;;;;;;;;;;5971401;24;20035;-96
2021/11/15 03:03:31;;;;;;;0.20;0.20;;;;;;;;;;5991759;24;20087;-95
2021/11/15 03:05:57;;;;;;;0.10;0.10;;;;;;;;;;5935476;24;20403;-94
2021/11/15 03:08:24;;;;;;;0.10;0.10;;;;;;;;;;5936703;24;20059;-94
2021/11/15 03:10:54;;;;;;;0.10;0.10;;;;;;;;;;5963723;24;20024;-96
2021/11/15 03:13:20;;;;;;;0.20;0.20;;;;;;;;;;5936987;24;20400;-94
2021/11/15 03:15:48;;;;;;;0.63;0.43;;;;;;;;;;5934373;24;20462;-93
2021/11/15 03:18:15;;;;;;;0.20;0.20;;;;;;;;;;5933863;24;20095;-94
2021/11/15 03:20:43;;;;;;;0.10;0.10;;;;;;;;;;5934093;24;20016;-95
2021/11/15 03:23:10;;;;;;;0.10;0.10;;;;;;;;;;5979396;24;20038;-95
2021/11/15 03:25:36;;;;;;;1.23;0.68;;;;;;;;;;5934304;24;20020;-95
2021/11/15 03:28:02;;;;;;;0.32;0.32;;;;;;;;;;5933954;24;20027;-94
2021/11/15 03:30:28;;;;;;;0.15;0.15;;;;;;;;;;5936522;23;20027;-95
2021/11/15 03:32:54;;;;;;;0.10;0.10;;;;;;;;;;5991382;23;20027;-95
2021/11/15 03:35:20;;;;;;;0.10;0.10;;;;;;;;;;5991093;23;20441;-94
2021/11/15 03:41:14;;;;;;;0.10;0.10;;;;;;;;;;5997085;23;20051;-95
2021/11/15 03:43:42;;;;;;;0.10;0.10;;;;;;;;;;6007872;23;20015;-96
2021/11/15 03:46:08;;;;;;;0.85;0.65;;;;;;;;;;6006928;23;20015;-95
2021/11/15 03:48:35;;;;;;;0.00;0.00;;;;;;;;;;5990181;23;20467;-94
2021/11/15 03:51:01;;;;;;;0.30;0.30;;;;;;;;;;5990365;23;20012;-95
2021/11/15 03:53:28;;;;;;;0.32;0.10;;;;;;;;;;5990456;23;20094;-93
2021/11/15 03:55:54;;;;;;;0.20;0.20;;;;;;;;;;5990083;23;20094;-93
2021/11/15 03:58:20;;;;;;;0.20;0.20;;;;;;;;;;5980533;24;20024;-93
2021/11/15 04:00:46;;;;;;;0.10;0.10;;;;;;;;;;5957498;24;20473;-92
2021/11/15 04:03:18;;;;;;;0.10;0.10;;;;;;;;;;5981436;24;20092;-94
2021/11/15 04:06:01;;;;;;;0.03;0.03;;;;;;;;;;5958211;24;20467;-96
2021/11/15 04:08:28;;;;;;;0.13;0.13;;;;;;;;;;5957519;24;20072;-94
2021/11/15 04:10:57;;;;;;;0.10;0.10;;;;;;;;;;5958469;24;20521;-94
2021/11/15 04:13:24;;;;;;;0.10;0.10;;;;;;;;;;5987265;24;20455;-93
2021/11/15 04:15:51;;;;;;;0.10;0.10;;;;;;;;;;5957997;24;20067;-95
2021/11/15 04:18:17;;;;;;;0.10;0.10;;;;;;;;;;5957895;24;20016;-95
2021/11/15 04:20:43;;;;;;;0.20;0.20;;;;;;;;;;5957309;24;20012;-93
2021/11/15 04:23:09;;;;;;;0.30;0.30;;;;;;;;;;5957678;24;20030;-96
2021/11/15 04:25:36;;;;;;;0.15;0.15;;;;;;;;;;5957376;24;20020;-95
2021/11/15 04:28:02;;;;;;;0.10;0.10;;;;;;;;;;5957418;24;20020;-94
2021/11/15 04:30:31;;;;;;;0.10;0.10;;;;;;;;;;5961398;24;20035;-96
2021/11/15 04:33:10;;;;;;;0.10;0.10;;;;;;;;;;5981934;24;20017;-96
2021/11/15 04:35:36;;;;;;;0.10;0.10;;;;;;;;;;5957636;24;20088;-96
2021/11/15 04:38:40;;;;;;;0.32;0.32;;;;;;;;;;5959272;24;20012;-96
2021/11/15 04:41:36;;;;;;;0.65;0.20;;;;;;;;;;5983274;24;20016;-96
2021/11/15 04:44:04;;;;;;;0.47;0.22;;;;;;;;;;5982423;24;20024;-96
2021/11/15 04:46:30;;;;;;;0.35;0.28;;;;;;;;;;5960122;24;20099;-96
2021/11/15 04:48:56;;;;;;;0.13;0.13;;;;;;;;;;5958898;24;20163;-96
2021/11/15 04:51:22;;;;;;;0.03;0.03;;;;;;;;;;5959789;24;20039;-96
2021/11/15 04:53:48;;;;;;;0.10;0.10;;;;;;;;;;5959084;24;20028;-94
2021/11/15 04:56:14;;;;;;;0.00;0.00;;;;;;;;;;5958655;24;20016;-95
2021/11/15 04:59:09;;;;;;;0.00;0.00;;;;;;;;;;5959962;24;20099;-96
2021/11/15 05:02:05;;;;;;;0.10;0.10;;;;;;;;;;6007723;23;20020;-95
2021/11/15 05:04:35;;;;;;;0.10;0.10;;;;;;;;;;5959975;24;20031;-94
2021/11/15 05:07:01;;;;;;;0.10;0.10;;;;;;;;;;5959245;24;20027;-96
2021/11/15 05:09:27;;;;;;;0.10;0.10;;;;;;;;;;5958807;24;20020;-94
2021/11/15 05:11:53;;;;;;;0.13;0.13;;;;;;;;;;5959110;24;20016;-95
2021/11/15 05:14:19;;;;;;;0.00;0.00;;;;;;;;;;5959345;24;20020;-96
2021/11/15 05:16:45;;;;;;;0.10;0.10;;;;;;;;;;5959775;24;20027;-96
2021/11/15 05:19:13;;;;;;;0.10;0.10;;;;;;;;;;5959458;24;20027;-96
2021/11/15 05:21:40;;;;;;;0.10;0.10;;;;;;;;;;5959123;24;20023;-95
2021/11/15 05:24:06;;;;;;;1.58;0.25;;;;;;;;;;5982513;24;20119;-96
2021/11/15 05:26:35;;;;;;;4.32;1.55;;;;;;;;;;5960148;24;20020;-96
2021/11/15 05:29:01;;;;;;;0.10;0.10;;;;;;;;;;5959791;24;20024;-95
2021/11/15 05:31:32;;;;;;;0.00;0.00;;;;;;;;;;5960240;24;20342;-96
2021/11/15 05:34:06;;;;;;;0.10;0.10;;;;;;;;;;5960248;24;20016;-95
2021/11/15 05:36:33;;;;;;;0.10;0.10;;;;;;;;;;5959548;24;20519;-96
2021/11/15 05:38:59;;;;;;;0.10;0.10;;;;;;;;;;5959092;24;20098;-95
2021/11/15 05:41:26;;;;;;;0.10;0.10;;;;;;;;;;5981311;24;20016;-94
2021/11/15 05:43:52;;;;;;;0.05;0.05;;;;;;;;;;5958662;24;20027;-94
2021/11/15 05:46:18;;;;;;;0.10;0.10;;;;;;;;;;5959089;24;20016;-93
2021/11/15 05:48:44;;;;;;;0.10;0.10;;;;;;;;;;5958979;24;20076;-95
2021/11/15 05:51:10;;;;;;;0.05;0.05;;;;;;;;;;5958680;24;20040;-95
2021/11/15 05:53:36;;;;;;;0.10;0.10;;;;;;;;;;5958101;24;20031;-95
2021/11/15 05:56:07;;;;;;;0.10;0.10;;;;;;;;;;5959278;24;20104;-96
2021/11/15 05:58:33;;;;;;;0.10;0.10;;;;;;;;;;5958944;24;20049;-96
2021/11/15 06:00:59;;;;;;;0.10;0.10;;;;;;;;;;5981475;24;20024;-96
2021/11/15 06:03:27;;;;;;;0.10;0.10;;;;;;;;;;5959235;24;20020;-96
2021/11/15 06:05:53;;;;;;;0.10;0.10;;;;;;;;;;5959058;24;20016;-94
2021/11/15 06:08:19;;;;;;;0.10;0.10;;;;;;;;;;5958625;24;20020;-93
2021/11/15 06:10:45;;;;;;;0.10;0.10;;;;;;;;;;5958965;24;20068;-92
2021/11/15 06:13:11;;;;;;;0.10;0.10;;;;;;;;;;5958836;24;20020;-94
2021/11/15 06:15:37;;;;;;;0.10;0.10;;;;;;;;;;5958504;24;20020;-94
2021/11/15 06:18:03;;;;;;;0.10;0.10;;;;;;;;;;5958523;24;20055;-93
2021/11/15 06:20:29;;;;;;;0.15;0.15;;;;;;;;;;5958871;24;20068;-94
2021/11/15 06:22:56;;;;;;;0.03;0.03;;;;;;;;;;5958733;24;20023;-93
2021/11/15 06:25:23;;;;;;;0.20;0.20;;;;;;;;;;5958169;24;20020;-94
2021/11/15 06:27:53;;;;;;;0.10;0.10;;;;;;;;;;5958377;24;20020;-94
2021/11/15 06:30:19;;;;;;;0.00;0.00;;;;;;;;;;5958779;24;20028;-94
2021/11/15 06:32:45;;;;;;;0.10;0.10;;;;;;;;;;5958252;24;20152;-92
2021/11/15 06:35:12;;;;;;;0.55;0.55;;;;;;;;;;5958680;24;20020;-93
2021/11/15 06:37:38;;;;;;;0.43;0.15;;;;;;;;;;5958415;24;20016;-94
2021/11/15 06:40:04;;;;;;;0.20;0.20;;;;;;;;;;5958368;24;20008;-93
2021/11/15 06:42:30;;;;;;;0.20;0.20;;;;;;;;;;5958964;24;20030;-94
2021/11/15 06:44:56;;;;;;;0.40;0.40;;;;;;;;;;5958129;24;20016;-93
2021/11/15 06:47:24;;;;;;;0.57;0.20;;;;;;;;;;5958303;24;20020;-95
2021/11/15 06:49:51;;;;;;;0.10;0.10;;;;;;;;;;5958416;24;20094;-95
2021/11/15 06:52:18;;;;;;;0.10;0.10;;;;;;;;;;5958289;24;20464;-96
2021/11/15 06:54:46;;;;;;;0.10;0.10;;;;;;;;;;5958243;24;20103;-96
2021/11/15 06:57:13;;;;;;;0.10;0.10;;;;;;;;;;5958078;24;20012;-96
2021/11/15 06:59:39;;;;;;;0.10;0.10;;;;;;;;;;5958980;24;20076;-96
2021/11/15 07:02:06;;;;;;;0.00;0.00;;;;;;;;;;5982123;24;20065;-96
2021/11/15 07:04:35;;;;;;;0.10;0.10;;;;;;;;;;5961523;24;20041;-96
2021/11/15 07:07:14;;;;;;;0.30;0.30;;;;;;;;;;5983518;24;20072;-96
2021/11/15 07:09:47;;;;;;;0.10;0.10;;;;;;;;;;5961547;24;20039;-96
2021/11/15 07:12:17;;;;;;;0.22;0.15;;;;;;;;;;5984725;24;20023;-96
2021/11/15 07:14:43;;;;;;;0.03;0.03;;;;;;;;;;5963889;24;20430;-96
2021/11/15 07:17:09;;;;;;;0.00;0.00;;;;;;;;;;5959849;24;20013;-95
2021/11/15 07:22:30;;;;;;;0.10;0.10;;;;;;;;;;5984783;24;20513;-91
2021/11/15 07:24:56;;;;;;;0.10;0.10;;;;;;;;;;5981064;24;20085;-91
2021/11/15 07:27:22;;;;;;;0.05;0.05;;;;;;;;;;5981144;24;20399;-90
2021/11/15 07:29:48;;;;;;;0.10;0.10;;;;;;;;;;5983012;24;20102;-93
2021/11/15 07:32:14;;;;;;;0.10;0.10;;;;;;;;;;5959873;24;20063;-90
2021/11/15 07:34:40;;;;;;;0.08;0.08;;;;;;;;;;5980434;24;20012;-88
2021/11/15 07:37:07;;;;;;;0.10;0.10;;;;;;;;;;5957372;24;20083;-90
2021/11/15 07:39:38;;;;;;;0.20;0.20;;;;;;;;;;5957470;24;20376;-90
2021/11/15 07:42:04;;;;;;;0.10;0.10;;;;;;;;;;5958231;24;20048;-90
2021/11/15 07:44:30;;;;;;;0.05;0.05;;;;;;;;;;5980334;24;20012;-89
2021/11/15 07:46:56;;;;;;;0.10;0.10;;;;;;;;;;5980234;24;20008;-89
2021/11/15 07:49:22;;;;;;;0.28;0.28;;;;;;;;;;5980146;24;20074;-89
2021/11/15 07:51:48;;;;;;;0.10;0.10;;;;;;;;;;5980369;24;20012;-89
2021/11/15 07:54:14;;;;;;;0.10;0.10;;;;;;;;;;5980535;24;20094;-89
2021/11/15 07:56:40;;;;;;;0.10;0.10;;;;;;;;;;5980978;24;20018;-93
2021/11/15 07:59:06;;;;;;;0.00;0.00;;;;;;;;;;5957706;24;20087;-91
2021/11/15 08:01:32;;;;;;;0.10;0.10;;;;;;;;;;5980474;24;20402;-91
2021/11/15 08:03:58;;;;;;;0.10;0.10;;;;;;;;;;5957830;24;20085;-92
2021/11/15 08:06:24;;;;;;;0.10;0.10;;;;;;;;;;5957550;24;20027;-89
2021/11/15 08:08:50;;;;;;;0.10;0.10;;;;;;;;;;5980646;24;20020;-91
2021/11/15 08:11:17;;;;;;;5.47;0.40;;;;;;;;;;5957465;24;20051;-91
2021/11/15 08:13:43;;;;;;;0.03;0.03;;;;;;;;;;5957454;24;20020;-91
2021/11/15 08:16:08;;;;;;;0.10;0.10;;;;;;;;;;5957454;24;20019;-91
2021/11/15 08:18:38;;;;;;;2.13;0.20;;;;;;;;;;5980562;24;20076;-92
2021/11/15 08:21:11;;;;;;;0.20;0.20;;;;;;;;;;5957763;24;20012;-95
2021/11/15 08:23:37;;;;;;;;;;;;;;;;;;5958485;24;20016;-94
2021/11/15 08:26:26;;;;;;;0.10;0.10;;;;;;;;;;5982108;24;19924;-91
2021/11/15 08:28:52;;;;;;;0.00;0.00;;;;;;;;;;5957728;24;20035;-93
2021/11/15 08:31:18;;;;;;;0.52;0.43;;;;;;;;;;5957773;24;20036;-93
2021/11/15 08:33:44;;;;;;;0.10;0.10;;;;;;;;;;5957709;24;20020;-93
2021/11/15 08:36:11;;;;;;;0.13;0.13;;;;;;;;;;5982120;24;20012;-92
2021/11/15 08:38:45;;;;;;;0.10;0.10;;;;;;;;;;5982040;24;20098;-95
2021/11/15 08:41:12;;;;;;;0.10;0.10;;;;;;;;;;5958774;24;20292;-93
2021/11/15 08:43:38;;;;;;;0.73;0.73;;;;;;;;;;5958092;24;20021;-95
2021/11/15 08:46:06;;;;;;;0.10;0.10;;;;;;;;;;5960417;24;20020;-95
2021/11/15 08:48:32;;;;;;;0.00;0.00;;;;;;;;;;5963613;24;20486;-96
2021/11/15 08:50:58;;;;;;;0.10;0.10;;;;;;;;;;5957724;24;20074;-94
2021/11/15 08:53:24;;;;;;;0.10;0.10;;;;;;;;;;5980941;24;20021;-93
2021/11/15 08:55:50;;;;;;;0.55;0.22;;;;;;;;;;5957883;24;20023;-92
2021/11/15 08:58:16;;;;;;;0.40;0.40;;;;;;;;;;5970555;23;20024;-92
2021/11/15 09:00:42;;;;;;;0.10;0.10;;;;;;;;;;6018096;23;20019;-89
2021/11/15 09:03:08;;;;;;;0.00;0.00;;;;;;;;;;5989311;23;20038;-90
2021/11/15 09:05:34;;;;;;;0.90;0.63;;;;;;;;;;6012964;23;20461;-89
2021/11/15 09:08:00;;;;;;;0.10;0.10;;;;;;;;;;5989566;23;20026;-90
2021/11/15 09:10:27;;;;;;;0.00;0.00;;;;;;;;;;5989221;23;20015;-90
2021/11/15 09:12:53;;;;;;;0.10;0.10;;;;;;;;;;5989059;23;20022;-89
2021/11/15 09:15:19;;;;;;;0.10;0.10;;;;;;;;;;5989258;23;20019;-89
2021/11/15 09:17:46;;;;;;;0.00;0.00;;;;;;;;;;6012701;23;20046;-90
2021/11/15 09:20:12;;;;;;;0.00;0.00;;;;;;;;;;5989551;23;20154;-91
2021/11/15 09:22:38;;;;;;;0.00;0.00;;;;;;;;;;6013562;23;20055;-91
2021/11/15 09:25:06;;;;;;;0.10;0.10;;;;;;;;;;5989539;23;20202;-92
2021/11/15 09:27:33;;;;;;;0.10;0.10;;;;;;;;;;6013577;23;20076;-91
2021/11/15 09:29:59;;;;;;;0.10;0.10;;;;;;;;;;5991467;23;20019;-92
2021/11/15 09:32:25;;;;;;;0.10;0.10;;;;;;;;;;6015203;23;20016;-92
2021/11/15 09:34:51;;;;;;;0.10;0.10;;;;;;;;;;5991722;23;20017;-93
2021/11/15 09:40:20;;;;;;;0.10;0.10;;;;;;;;;;5985799;23;20028;-95
2021/11/15 09:42:56;;;;;;;;;;;;;;;;;;;;;
2021/11/15 09:45:23;;;;;;;0.10;0.10;;;;;;;;;;5959023;24;20027;-94
2021/11/15 09:47:49;;;;;;;0.10;0.10;;;;;;;;;;5976151;23;20099;-94
2021/11/15 09:50:17;;;;;;;0.10;0.10;;;;;;;;;;5963873;23;20019;-95
2021/11/15 09:52:47;;;;;;;0.10;0.10;;;;;;;;;;5918225;23;20030;-96
2021/11/15 10:00:44;;;;;;;0.10;0.10;;;;;;;;;;6024446;23;20031;-89
2021/11/15 10:03:10;;;;;;;0.10;0.10;;;;;;;;;;6037974;23;20015;-89
2021/11/15 10:05:36;;;;;;;0.10;0.10;;;;;;;;;;6014567;23;20069;-89
2021/11/15 10:08:05;;;;;;;0.10;0.10;;;;;;;;;;5999339;23;20023;-92
2021/11/15 10:10:38;;;;;;;0.10;0.10;;;;;;;;;;5986151;23;20520;-90
2021/11/15 10:13:16;;;;;;;0.10;0.10;;;;;;;;;;5986474;23;20451;-88
2021/11/15 10:15:50;;;;;;;0.08;0.08;;;;;;;;;;5986532;23;20012;-91
2021/11/15 10:18:20;;;;;;;0.10;0.10;;;;;;;;;;5986506;23;20012;-90
2021/11/15 10:20:50;;;;;;;0.10;0.10;;;;;;;;;;5986331;23;20115;-91
2021/11/15 10:23:39;;;;;;;0.10;0.10;;;;;;;;;;5986122;23;20019;-89
2021/11/15 10:26:09;;;;;;;0.10;0.10;;;;;;;;;;6009151;23;20043;-88
2021/11/15 10:28:35;;;;;;;0.10;0.10;;;;;;;;;;5985512;23;20024;-89
2021/11/15 10:31:01;;;;;;;0.35;0.20;;;;;;;;;;5985211;23;20015;-89
2021/11/15 10:33:34;;;;;;;0.10;0.10;;;;;;;;;;5985364;23;20522;-91
2021/11/15 10:36:01;;;;;;;0.10;0.10;;;;;;;;;;5985371;23;20015;-88
2021/11/15 10:38:43;;;;;;;0.10;0.10;;;;;;;;;;5985235;23;20018;-89
2021/11/15 10:41:13;;;;;;;0.10;0.10;;;;;;;;;;5985597;23;20449;-89
2021/11/15 10:43:39;;;;;;;0.10;0.10;;;;;;;;;;5985961;23;20019;-92
2021/11/15 10:46:06;;;;;;;0.10;0.10;;;;;;;;;;5988808;23;20052;-95
2021/11/15 10:48:45;;;;;;;0.10;0.10;;;;;;;;;;6008148;23;20402;-93
2021/11/15 10:51:14;;;;;;;0.32;0.32;;;;;;;;;;6014846;23;20025;-93
2021/11/15 10:53:54;;;;;;;0.10;0.10;;;;;;;;;;6014405;23;20015;-94
2021/11/15 10:56:30;;;;;;;0.10;0.10;;;;;;;;;;6014760;23;20023;-93
2021/11/15 10:58:56;;;;;;;0.10;0.10;;;;;;;;;;5990715;23;20054;-92
2021/11/15 11:01:32;;;;;;;1.55;0.52;;;;;;;;;;5990475;23;20030;-90
2021/11/15 11:04:10;;;;;;;1.95;0.40;;;;;;;;;;5990814;23;20015;-90
2021/11/15 11:06:55;;;;;;;0.10;0.10;;;;;;;;;;6014173;23;20026;-91
2021/11/15 11:09:33;;;;;;;0.10;0.10;;;;;;;;;;6014014;23;20014;-92
2021/11/15 11:12:14;;;;;;;1.00;1.00;;;;;;;;;;6038799;23;20023;-93
2021/11/15 11:14:41;;;;;;;0.30;0.30;;;;;;;;;;6013866;23;20022;-92
2021/11/15 11:17:08;;;;;;;0.10;0.10;;;;;;;;;;6011989;23;20090;-93
2021/11/15 11:19:36;;;;;;;0.10;0.10;;;;;;;;;;5990160;23;20030;-91
2021/11/15 11:25:09;;;;;;;0.10;0.10;;;;;;;;;;6013932;23;20382;-91
2021/11/15 11:27:35;;;;;;;0.20;0.20;;;;;;;;;;5990206;23;20035;-90
2021/11/15 11:30:01;;;;;;;0.10;0.10;;;;;;;;;;5989417;23;20018;-90
2021/11/15 11:32:28;;;;;;;0.38;0.38;;;;;;;;;;5989904;23;20094;-89
2021/11/15 11:34:56;;;;;;;0.10;0.10;;;;;;;;;;6012991;23;20071;-88
2021/11/15 11:37:24;;;;;;;0.20;0.20;;;;;;;;;;5992246;23;20077;-88
2021/11/15 11:39:50;;;;;;;0.10;0.10;;;;;;;;;;5993876;23;20022;-91
2021/11/15 11:42:16;;;;;;;0.10;0.10;;;;;;;;;;6008390;23;20098;-87
2021/11/15 11:44:43;;;;;;;0.22;0.10;;;;;;;;;;6016363;23;20026;-90
2021/11/15 11:47:09;;;;;;;0.10;0.10;;;;;;;;;;5985380;23;20454;-90
2021/11/15 11:49:35;;;;;;;0.10;0.10;;;;;;;;;;5984341;23;20026;-91
2021/11/15 11:52:02;;;;;;;0.20;0.20;;;;;;;;;;5984691;23;20023;-88
2021/11/15 11:54:33;;;;;;;0.10;0.10;;;;;;;;;;6008586;23;20011;-92
2021/11/15 11:56:59;;;;;;;0.10;0.10;;;;;;;;;;5984931;23;20094;-88
2021/11/15 11:59:25;;;;;;;0.10;0.10;;;;;;;;;;6008465;23;20287;-88
2021/11/15 12:01:58;;;;;;;1.08;0.70;;;;;;;;;;5984882;23;20012;-88
2021/11/15 12:04:25;;;;;;;0.10;0.10;;;;;;;;;;5984787;23;20078;-88
2021/11/15 12:06:52;;;;;;;0.32;0.32;;;;;;;;;;6008275;23;20090;-88
2021/11/15 12:09:18;;;;;;;0.10;0.10;;;;;;;;;;6008222;23;20016;-88
2021/11/15 12:11:45;;;;;;;0.10;0.10;;;;;;;;;;6008070;23;20041;-88
2021/11/15 12:14:13;;;;;;;0.40;0.40;;;;;;;;;;5984490;23;20027;-88
2021/11/15 12:16:55;;;;;;;0.10;0.10;;;;;;;;;;6007945;23;20020;-89
2021/11/15 12:19:26;;;;;;;0.25;0.25;;;;;;;;;;6008529;23;20207;-89
2021/11/15 12:22:05;;;;;;;0.63;0.10;;;;;;;;;;5984927;23;20100;-89
2021/11/15 12:24:31;;;;;;;0.52;0.10;;;;;;;;;;5984995;23;20387;-89
2021/11/15 12:26:57;;;;;;;0.00;0.00;;;;;;;;;;5984495;23;20071;-90
2021/11/15 12:29:28;;;;;;;0.10;0.10;;;;;;;;;;6008202;23;20478;-89
2021/11/15 12:32:02;;;;;;;0.32;0.32;;;;;;;;;;5985018;23;20469;-89
2021/11/15 12:34:31;;;;;;;0.00;0.00;;;;;;;;;;6008059;23;20020;-90
2021/11/15 12:36:58;;;;;;;0.10;0.10;;;;;;;;;;6007778;23;20084;-87
2021/11/15 12:39:31;;;;;;;0.25;0.25;;;;;;;;;;6008092;23;20483;-88
2021/11/15 12:41:58;;;;;;;0.10;0.10;;;;;;;;;;6007920;23;20020;-88
2021/11/15 12:44:28;;;;;;;0.95;0.45;;;;;;;;;;6007811;23;20012;-87
2021/11/15 12:46:57;;;;;;;0.35;0.35;;;;;;;;;;5984201;23;20019;-88
2021/11/15 12:49:30;;;;;;;0.98;0.10;;;;;;;;;;6007875;23;20030;-88
2021/11/15 12:51:56;;;;;;;;;;;;;;;;;;5985138;23;20023;-87
2021/11/15 12:54:22;;;;;;;0.10;0.10;;;;;;;;;;6031500;23;19922;-88
2021/11/15 12:56:48;;;;;;;0.30;0.30;;;;;;;;;;5984384;23;20035;-89
2021/11/15 12:59:14;;;;;;;0.17;0.17;;;;;;;;;;5984360;23;20023;-88
2021/11/15 13:01:41;;;;;;;0.17;0.17;;;;;;;;;;5984191;23;20044;-88
2021/11/15 13:04:07;;;;;;;0.10;0.10;;;;;;;;;;5985858;23;20119;-88
2021/11/15 13:06:33;;;;;;;0.10;0.10;;;;;;;;;;6009680;23;20059;-90
2021/11/15 13:08:59;;;;;;;0.10;0.10;;;;;;;;;;6010146;23;20023;-85
2021/11/15 13:11:26;;;;;;;0.80;0.28;;;;;;;;;;6010044;23;20019;-86
2021/11/15 13:13:52;;;;;;;0.20;0.20;;;;;;;;;;5986785;23;20047;-86
2021/11/15 13:16:19;;;;;;;0.15;0.15;;;;;;;;;;6009724;23;20016;-86
2021/11/15 13:18:45;;;;;;;0.20;0.20;;;;;;;;;;5986181;23;20016;-86
2021/11/15 13:21:13;;;;;;;0.32;0.32;;;;;;;;;;6009502;23;20067;-87
2021/11/15 13:23:39;;;;;;;0.38;0.38;;;;;;;;;;6009492;23;20082;-89
2021/11/15 13:26:05;;;;;;;0.10;0.10;;;;;;;;;;5986051;23;20023;-87
2021/11/15 13:28:31;;;;;;;0.35;0.35;;;;;;;;;;5985443;23;20020;-87
2021/11/15 13:30:58;;;;;;;0.20;0.20;;;;;;;;;;6009378;23;20026;-87
2021/11/15 13:33:24;;;;;;;0.20;0.20;;;;;;;;;;6009281;23;20064;-88
2021/11/15 13:35:50;;;;;;;0.73;0.73;;;;;;;;;;5985854;23;20020;-87
2021/11/15 13:38:16;;;;;;;0.10;0.10;;;;;;;;;;6009148;23;20016;-87
2021/11/15 13:40:44;;;;;;;0.10;0.10;;;;;;;;;;5986191;23;20019;-87
2021/11/15 13:43:10;;;;;;;0.10;0.10;;;;;;;;;;6009186;23;20346;-87
2021/11/15 13:45:36;;;;;;;0.90;0.90;;;;;;;;;;5985795;23;20505;-87
2021/11/15 13:48:02;;;;;;;0.10;0.10;;;;;;;;;;5985362;23;20094;-87
2021/11/15 13:50:29;;;;;;;0.13;0.13;;;;;;;;;;6009209;23;20031;-87
2021/11/15 13:52:54;;;;;;;0.10;0.10;;;;;;;;;;6009065;23;20027;-88
2021/11/15 13:55:20;;;;;;;0.10;0.10;;;;;;;;;;6009134;23;20044;-87
2021/11/15 13:57:47;;;;;;;0.17;0.10;;;;;;;;;;5985602;23;20115;-87
2021/11/15 14:00:13;;;;;;;0.10;0.10;;;;;;;;;;6009150;23;20026;-87
2021/11/15 14:02:39;;;;;;;0.10;0.10;;;;;;;;;;6009008;23;20405;-87
2021/11/15 14:05:05;;;;;;;0.10;0.10;;;;;;;;;;6009258;23;20043;-88
2021/11/15 14:07:31;;;;;;;0.10;0.10;;;;;;;;;;5985461;23;20020;-88
2021/11/15 14:09:57;;;;;;;0.10;0.10;;;;;;;;;;6009483;23;20067;-87
2021/11/15 14:12:23;;;;;;;0.10;0.10;;;;;;;;;;6009247;23;20027;-87
2021/11/15 14:14:49;;;;;;;3.03;0.28;;;;;;;;;;6008644;23;20452;-88
2021/11/15 14:17:16;;;;;;;0.52;0.52;;;;;;;;;;6009148;23;20040;-87
2021/11/15 14:19:43;;;;;;;0.25;0.25;;;;;;;;;;6009187;23;20182;-87
2021/11/15 14:22:09;;;;;;;0.20;0.15;;;;;;;;;;5985894;23;20456;-88
2021/11/15 14:24:38;;;;;;;0.10;0.10;;;;;;;;;;6009166;23;20417;-87
2021/11/15 14:27:06;;;;;;;0.40;0.30;;;;;;;;;;6008968;23;20022;-87
2021/11/15 14:29:32;;;;;;;0.25;0.25;;;;;;;;;;6009093;23;20387;-87
2021/11/15 14:31:58;;;;;;;0.10;0.10;;;;;;;;;;5985800;23;20012;-88
2021/11/15 14:34:24;;;;;;;0.40;0.20;;;;;;;;;;6009051;23;20019;-87
2021/11/15 14:36:50;;;;;;;0.35;0.35;;;;;;;;;;6008942;23;20012;-87
2021/11/15 14:39:16;;;;;;;0.15;0.15;;;;;;;;;;6009132;23;20012;-87
2021/11/15 14:41:43;;;;;;;0.43;0.43;;;;;;;;;;6008913;23;20075;-87
2021/11/15 14:44:10;;;;;;;0.20;0.20;;;;;;;;;;6008929;23;20087;-87
2021/11/15 14:46:36;;;;;;;0.28;0.28;;;;;;;;;;5985280;23;20769;-87
2021/11/15 14:49:02;;;;;;;0.75;0.32;;;;;;;;;;6009027;23;20023;-87
2021/11/15 14:51:29;;;;;;;0.40;0.20;;;;;;;;;;6008908;23;20020;-88
2021/11/15 14:53:55;;;;;;;0.25;0.25;;;;;;;;;;5985279;23;20016;-88
2021/11/15 14:56:21;;;;;;;0.15;0.10;;;;;;;;;;5985141;23;20019;-87
2021/11/15 14:58:49;;;;;;;0.10;0.10;;;;;;;;;;5985237;23;20083;-87
2021/11/15 15:01:15;;;;;;;0.10;0.10;;;;;;;;;;6008797;23;20019;-88
2021/11/15 15:03:41;;;;;;;1.60;0.55;;;;;;;;;;5985194;23;20012;-88
2021/11/15 15:06:07;;;;;;;0.30;0.30;;;;;;;;;;6008668;23;20453;-88
2021/11/15 15:08:33;;;;;;;0.32;0.32;;;;;;;;;;6008774;23;20054;-87
2021/11/15 15:10:59;;;;;;;0.38;0.20;;;;;;;;;;6008634;23;20090;-88
2021/11/15 15:13:26;;;;;;;0.15;0.15;;;;;;;;;;5984904;23;20023;-88
2021/11/15 15:15:52;;;;;;;0.30;0.30;;;;;;;;;;5985190;23;20098;-87